Time;durP1;ratioP1;P1;durP2;ratioP2;P2;SDS_P1;SDS_P2;PMS_P1;PMS_P2;Temp;Humidity;BMP_temperature;BMP_pressure;BME280_temperature;BME280_humidity;BME280_pressure;Samples;Min_cycle;Max_cycle;Signal;HPM_P1;HPM_P2
2021/05/15 00:01:22;;;;;;;9.18;7.53;;;18.80;58.60;;;;;;6137441;23;20181;-80
2021/05/15 00:03:56;;;;;;;8.38;7.45;;;18.80;58.50;;;;;;6136469;23;20490;-80
2021/05/15 00:06:26;;;;;;;9.52;8.00;;;18.70;58.50;;;;;;6161894;23;20170;-80
2021/05/15 00:09:01;;;;;;;9.18;8.18;;;18.70;58.50;;;;;;6137734;23;20143;-81
2021/05/15 00:11:35;;;;;;;8.38;7.35;;;18.80;58.50;;;;;;6137869;23;20150;-82
2021/05/15 00:14:05;;;;;;;8.32;7.45;;;18.70;58.50;;;;;;6187867;23;20183;-80
2021/05/15 00:16:32;;;;;;;9.35;7.95;;;18.70;58.50;;;;;;6162251;23;20131;-80
2021/05/15 00:18:59;;;;;;;9.15;8.02;;;18.70;58.60;;;;;;6162095;23;20218;-80
2021/05/15 00:21:29;;;;;;;10.30;7.55;;;18.70;58.50;;;;;;6161829;23;20150;-81
2021/05/15 00:23:54;;;;;;;8.95;7.65;;;18.80;58.60;;;;;;6188153;23;20567;-80
2021/05/15 00:26:28;;;;;;;8.43;7.28;;;18.70;58.70;;;;;;6114012;23;20143;-81
2021/05/15 00:28:53;;;;;;;9.82;7.68;;;18.70;58.50;;;;;;6113537;23;20177;-81
2021/05/15 00:31:25;;;;;;;8.57;7.65;;;18.70;58.60;;;;;;6137480;23;20132;-80
2021/05/15 00:33:50;;;;;;;9.23;7.90;;;18.70;58.50;;;;;;6132523;23;20195;-80
2021/05/15 00:36:16;;;;;;;8.90;7.63;;;18.70;58.50;;;;;;6133288;23;20206;-80
2021/05/15 00:38:42;;;;;;;8.35;7.45;;;18.70;58.40;;;;;;6107849;23;20146;-80
2021/05/15 00:41:08;;;;;;;10.35;7.47;;;18.80;58.50;;;;;;6107685;23;20159;-81
2021/05/15 00:43:36;;;;;;;8.50;7.50;;;18.70;58.60;;;;;;6108058;23;20156;-81
2021/05/15 00:46:12;;;;;;;9.25;7.75;;;18.70;58.60;;;;;;6132170;23;20195;-80
2021/05/15 00:48:37;;;;;;;8.52;7.43;;;18.70;58.60;;;;;;6108827;23;20193;-80
2021/05/15 00:51:04;;;;;;;9.75;7.82;;;18.70;58.60;;;;;;6107567;23;20155;-81
2021/05/15 00:53:35;;;;;;;9.35;7.65;;;18.70;58.70;;;;;;6132212;23;20172;-81
2021/05/15 00:56:01;;;;;;;8.85;7.30;;;18.70;58.70;;;;;;6085919;23;20575;-81
2021/05/15 00:58:31;;;;;;;8.70;7.53;;;18.70;58.70;;;;;;6107742;23;20139;-80
2021/05/15 01:01:00;;;;;;;9.45;7.93;;;18.70;58.60;;;;;;6107579;23;20150;-81
2021/05/15 01:03:29;;;;;;;8.70;7.80;;;18.70;58.70;;;;;;6132500;23;20155;-80
2021/05/15 01:05:57;;;;;;;9.48;7.75;;;18.70;58.70;;;;;;6107779;23;20247;-81
2021/05/15 01:08:27;;;;;;;8.52;7.50;;;18.70;58.70;;;;;;6132441;23;20127;-80
2021/05/15 01:10:54;;;;;;;10.02;8.05;;;18.70;58.70;;;;;;6108018;23;20187;-80
2021/05/15 01:13:32;;;;;;;9.45;8.25;;;18.70;58.70;;;;;;6108111;23;20488;-82
2021/05/15 01:15:59;;;;;;;9.15;7.68;;;18.70;58.70;;;;;;6133288;23;20215;-80
2021/05/15 01:18:26;;;;;;;8.32;7.43;;;18.70;58.80;;;;;;6132786;23;20127;-81
2021/05/15 01:21:02;;;;;;;9.15;7.90;;;18.70;58.80;;;;;;6131794;23;20178;-81
2021/05/15 01:23:30;;;;;;;9.90;7.88;;;18.70;58.80;;;;;;6108120;23;20147;-81
2021/05/15 01:25:59;;;;;;;8.98;7.50;;;18.70;58.80;;;;;;6107269;23;20183;-81
2021/05/15 01:28:36;;;;;;;9.23;8.18;;;18.70;58.70;;;;;;6082990;23;20147;-80
2021/05/15 01:31:03;;;;;;;9.35;8.05;;;18.60;58.80;;;;;;6109133;23;20127;-80
2021/05/15 01:33:30;;;;;;;9.52;7.80;;;18.60;58.80;;;;;;6131616;23;20195;-80
2021/05/15 01:35:59;;;;;;;9.40;7.97;;;18.60;58.70;;;;;;6108181;23;20136;-81
2021/05/15 01:38:27;;;;;;;10.02;8.50;;;18.60;58.70;;;;;;6132193;23;20128;-82
2021/05/15 01:40:53;;;;;;;9.05;7.57;;;18.60;58.80;;;;;;6108123;23;20140;-81
2021/05/15 01:43:23;;;;;;;9.35;8.13;;;18.70;58.80;;;;;;6107761;23;20190;-81
2021/05/15 01:45:57;;;;;;;8.65;7.50;;;18.70;58.70;;;;;;6132058;23;20226;-79
2021/05/15 01:48:32;;;;;;;8.80;7.45;;;18.60;58.70;;;;;;6108355;23;20152;-80
2021/05/15 01:51:15;;;;;;;9.02;7.57;;;18.60;58.70;;;;;;6107836;23;20154;-81
2021/05/15 01:53:46;;;;;;;9.10;7.70;;;18.60;58.90;;;;;;6109056;23;20171;-79
2021/05/15 01:56:16;;;;;;;10.55;7.90;;;18.70;58.70;;;;;;6107482;23;20579;-79
2021/05/15 01:58:42;;;;;;;9.25;7.75;;;18.60;58.70;;;;;;6107943;23;20152;-80
2021/05/15 02:01:12;;;;;;;9.73;8.15;;;18.60;58.70;;;;;;6107914;23;20643;-79
2021/05/15 02:03:41;;;;;;;8.73;7.72;;;18.60;58.80;;;;;;6107410;23;20362;-80
2021/05/15 02:06:07;;;;;;;9.07;7.65;;;18.60;58.90;;;;;;6108511;23;20247;-81
2021/05/15 02:08:46;;;;;;;9.00;7.60;;;18.60;58.70;;;;;;6132451;23;20471;-80
2021/05/15 02:11:16;;;;;;;8.98;7.80;;;18.60;58.80;;;;;;6108845;23;20459;-81
2021/05/15 02:13:44;;;;;;;10.00;8.10;;;18.60;58.90;;;;;;6107991;23;20148;-80
2021/05/15 02:16:15;;;;;;;9.73;8.25;;;18.60;58.90;;;;;;6132156;23;20140;-80
2021/05/15 02:18:42;;;;;;;8.88;7.47;;;18.60;58.90;;;;;;6108750;23;20160;-80
2021/05/15 02:21:10;;;;;;;9.95;8.25;;;18.60;59.00;;;;;;6107043;23;20154;-81
2021/05/15 02:23:36;;;;;;;8.63;7.47;;;18.60;59.00;;;;;;6110943;23;20148;-80
2021/05/15 02:26:02;;;;;;;9.07;7.43;;;18.60;58.90;;;;;;6108766;23;20182;-80
2021/05/15 02:28:28;;;;;;;8.68;7.45;;;18.60;58.90;;;;;;6110497;23;20564;-81
2021/05/15 02:30:54;;;;;;;9.32;8.02;;;18.60;58.90;;;;;;6085777;23;20226;-81
2021/05/15 02:33:25;;;;;;;9.23;7.75;;;18.60;58.90;;;;;;6109516;23;20530;-80
2021/05/15 02:35:51;;;;;;;9.10;7.97;;;18.60;58.90;;;;;;6109653;23;20167;-80
2021/05/15 02:38:18;;;;;;;9.63;7.93;;;18.60;59.00;;;;;;6109760;23;20151;-80
2021/05/15 02:40:53;;;;;;;9.02;8.05;;;18.60;58.90;;;;;;6110989;23;20486;-80
2021/05/15 02:43:33;;;;;;;9.10;7.47;;;18.60;58.90;;;;;;6110861;23;20150;-80
2021/05/15 02:46:02;;;;;;;9.10;8.05;;;18.60;58.90;;;;;;6109318;23;20202;-80
2021/05/15 02:48:30;;;;;;;9.63;7.65;;;18.60;59.00;;;;;;6133956;23;20213;-81
2021/05/15 02:51:10;;;;;;;9.48;8.18;;;18.60;58.90;;;;;;6108777;23;20147;-80
2021/05/15 02:53:37;;;;;;;8.45;7.53;;;18.60;58.90;;;;;;6133688;23;20124;-81
2021/05/15 02:56:04;;;;;;;8.73;7.63;;;18.60;59.00;;;;;;6133612;23;20131;-80
2021/05/15 02:58:35;;;;;;;9.75;7.95;;;18.60;59.00;;;;;;6109348;23;20139;-80
2021/05/15 03:01:01;;;;;;;9.07;7.63;;;18.60;59.00;;;;;;6134123;23;20127;-81
2021/05/15 03:03:29;;;;;;;9.18;8.00;;;18.60;59.00;;;;;;6108906;23;20215;-80
2021/05/15 03:05:58;;;;;;;8.65;7.25;;;18.60;58.90;;;;;;6134344;23;20654;-80
2021/05/15 03:08:25;;;;;;;8.73;7.78;;;18.60;58.90;;;;;;6110372;23;20171;-81
2021/05/15 03:11:00;;;;;;;8.65;7.63;;;18.50;58.80;;;;;;6109610;23;20151;-80
2021/05/15 03:13:29;;;;;;;9.90;8.05;;;18.60;58.90;;;;;;6108751;23;20225;-80
2021/05/15 03:15:55;;;;;;;10.52;8.35;;;18.60;58.90;;;;;;6159726;23;20135;-81
2021/05/15 03:18:34;;;;;;;8.68;7.30;;;18.60;59.00;;;;;;6133012;23;20151;-80
2021/05/15 03:21:00;;;;;;;9.43;8.07;;;18.60;58.80;;;;;;6108589;23;20151;-80
2021/05/15 03:23:36;;;;;;;9.15;8.00;;;18.60;58.90;;;;;;6108430;23;20151;-81
2021/05/15 03:26:17;;;;;;;8.93;7.88;;;18.60;59.00;;;;;;6134092;23;20175;-81
2021/05/15 03:28:48;;;;;;;9.05;7.72;;;18.60;59.00;;;;;;6134012;23;20214;-80
2021/05/15 03:31:14;;;;;;;9.25;7.93;;;18.60;59.00;;;;;;6108564;23;20234;-80
2021/05/15 03:33:44;;;;;;;9.40;8.23;;;18.50;58.90;;;;;;6153104;23;20526;-81
2021/05/15 03:36:11;;;;;;;9.70;7.70;;;18.50;59.00;;;;;;6162508;23;20210;-80
2021/05/15 03:38:39;;;;;;;9.32;7.90;;;18.50;59.00;;;;;;6163235;23;20131;-80
2021/05/15 03:41:13;;;;;;;9.20;7.72;;;18.60;58.90;;;;;;6162937;23;20595;-79
2021/05/15 03:43:40;;;;;;;8.95;7.28;;;18.60;58.90;;;;;;6162470;23;20150;-81
2021/05/15 03:46:11;;;;;;;9.50;8.02;;;18.50;58.90;;;;;;6138518;23;20554;-81
2021/05/15 03:48:41;;;;;;;8.43;7.18;;;18.50;59.00;;;;;;6163636;23;20154;-80
2021/05/15 03:51:08;;;;;;;9.18;8.00;;;18.50;58.90;;;;;;6164089;23;20129;-80
2021/05/15 03:53:42;;;;;;;9.15;8.07;;;18.50;59.00;;;;;;6137489;23;20135;-81
2021/05/15 03:56:10;;;;;;;8.85;7.53;;;18.50;59.00;;;;;;6189205;23;20559;-81
2021/05/15 03:58:39;;;;;;;9.07;8.02;;;18.50;59.00;;;;;;6138501;23;20638;-80
2021/05/15 04:01:06;;;;;;;9.63;7.82;;;18.60;59.10;;;;;;6138614;23;20147;-81
2021/05/15 04:03:40;;;;;;;9.75;8.15;;;18.50;59.00;;;;;;6163117;23;20123;-80
2021/05/15 04:06:16;;;;;;;10.10;8.15;;;18.50;59.10;;;;;;6137614;23;20179;-81
2021/05/15 04:08:46;;;;;;;7.93;7.13;;;18.50;58.90;;;;;;6163116;23;20134;-81
2021/05/15 04:11:21;;;;;;;9.30;7.90;;;18.50;59.00;;;;;;6137367;23;20592;-81
2021/05/15 04:13:59;;;;;;;8.20;7.30;;;18.50;59.00;;;;;;6162820;23;20204;-80
2021/05/15 04:19:15;;;;;;;9.65;7.90;;;18.50;59.10;;;;;;6166737;23;20162;-80
2021/05/15 04:21:43;;;;;;;8.95;7.65;;;18.50;59.10;;;;;;6162873;23;20221;-81
2021/05/15 04:24:14;;;;;;;9.20;7.95;;;18.50;59.00;;;;;;6188559;23;20479;-80
2021/05/15 04:26:43;;;;;;;8.82;7.80;;;18.50;59.10;;;;;;6114791;23;20143;-81
2021/05/15 04:29:11;;;;;;;8.48;7.57;;;18.50;59.00;;;;;;6113349;23;20162;-80
2021/05/15 04:31:40;;;;;;;10.52;7.82;;;18.50;59.00;;;;;;6113468;23;20197;-81
2021/05/15 04:34:07;;;;;;;8.82;7.68;;;18.50;59.00;;;;;;6138365;23;20182;-82
2021/05/15 04:36:33;;;;;;;9.52;8.05;;;18.50;59.00;;;;;;6114913;23;20158;-81
2021/05/15 04:39:12;;;;;;;8.75;7.25;;;18.50;59.10;;;;;;6140737;23;20151;-80
2021/05/15 04:41:39;;;;;;;9.13;7.35;;;18.50;59.10;;;;;;6140773;23;20150;-81
2021/05/15 04:44:47;;;;;;;8.65;7.75;;;18.50;59.10;;;;;;6139017;23;20224;-80
2021/05/15 04:47:22;;;;;;;10.10;7.80;;;18.50;59.10;;;;;;6161781;23;20151;-81
2021/05/15 04:49:48;;;;;;;9.52;7.88;;;18.50;59.00;;;;;;6136444;23;20169;-81
2021/05/15 04:52:17;;;;;;;9.65;7.95;;;18.50;59.10;;;;;;6137214;23;20239;-81
2021/05/15 04:54:49;;;;;;;9.48;7.53;;;18.50;59.00;;;;;;6137082;23;20155;-80
2021/05/15 04:57:16;;;;;;;9.30;7.95;;;18.50;58.90;;;;;;6136918;23;20586;-80
2021/05/15 04:59:43;;;;;;;9.15;8.00;;;18.50;59.00;;;;;;6138257;23;20190;-81
2021/05/15 05:02:09;;;;;;;9.05;7.88;;;18.50;59.00;;;;;;6112452;23;20158;-79
2021/05/15 05:04:35;;;;;;;8.77;7.70;;;18.50;58.90;;;;;;6160022;23;20469;-81
2021/05/15 05:07:00;;;;;;;9.68;7.82;;;18.50;58.90;;;;;;6160038;23;20213;-79
2021/05/15 05:09:26;;;;;;;9.63;8.23;;;18.50;58.90;;;;;;6186360;23;20131;-80
2021/05/15 05:11:52;;;;;;;9.02;7.50;;;18.50;58.90;;;;;;6186361;23;20466;-81
2021/05/15 05:14:17;;;;;;;9.32;8.05;;;18.50;59.00;;;;;;6186156;23;20131;-79
2021/05/15 05:16:45;;;;;;;9.90;8.38;;;18.50;59.10;;;;;;6160564;23;20213;-80
2021/05/15 05:19:12;;;;;;;9.95;8.05;;;18.50;59.10;;;;;;6186482;23;20130;-79
2021/05/15 05:21:38;;;;;;;8.90;7.60;;;18.50;59.00;;;;;;6136154;23;20233;-79
2021/05/15 05:24:05;;;;;;;9.82;8.23;;;18.50;59.10;;;;;;6160728;23;20154;-79
2021/05/15 05:26:34;;;;;;;9.27;7.63;;;18.50;59.10;;;;;;6186686;23;20631;-79
2021/05/15 05:29:06;;;;;;;9.77;7.53;;;18.50;59.10;;;;;;6186163;23;20461;-81
2021/05/15 05:31:36;;;;;;;9.07;7.53;;;18.50;59.10;;;;;;6185986;23;20182;-80
2021/05/15 05:34:03;;;;;;;8.88;7.53;;;18.50;59.10;;;;;;6185965;23;20197;-81
2021/05/15 05:36:28;;;;;;;9.43;7.82;;;18.50;59.10;;;;;;6159775;23;20208;-81
2021/05/15 05:38:54;;;;;;;8.68;7.38;;;18.50;59.10;;;;;;6159677;23;20611;-80
2021/05/15 05:41:24;;;;;;;9.57;7.38;;;18.50;59.10;;;;;;6110720;23;20147;-80
2021/05/15 05:43:51;;;;;;;9.48;7.88;;;18.50;59.10;;;;;;6160315;23;20474;-80
2021/05/15 05:46:17;;;;;;;9.35;7.88;;;18.50;59.10;;;;;;6134782;23;20183;-79
2021/05/15 05:48:44;;;;;;;9.25;7.88;;;18.50;59.10;;;;;;6135234;23;20564;-80
2021/05/15 05:51:09;;;;;;;10.25;8.35;;;18.50;59.00;;;;;;6159354;23;20194;-81
2021/05/15 05:53:35;;;;;;;10.07;7.75;;;18.50;59.00;;;;;;6135169;23;20564;-80
2021/05/15 05:56:02;;;;;;;10.32;8.45;;;18.50;59.10;;;;;;6135549;23;20143;-80
2021/05/15 05:58:27;;;;;;;9.90;8.25;;;18.50;59.00;;;;;;6162220;23;20131;-79
2021/05/15 06:00:54;;;;;;;8.73;7.50;;;18.50;59.00;;;;;;6188003;23;20142;-79
2021/05/15 06:03:19;;;;;;;9.02;7.68;;;18.50;59.00;;;;;;6137005;23;20158;-80
2021/05/15 06:05:45;;;;;;;8.80;7.70;;;18.50;58.90;;;;;;6187607;23;20245;-81
2021/05/15 06:08:11;;;;;;;9.05;7.60;;;18.50;58.90;;;;;;6136594;23;20154;-81
2021/05/15 06:10:37;;;;;;;8.98;7.75;;;18.50;58.80;;;;;;6162273;23;20135;-79
2021/05/15 06:13:07;;;;;;;8.70;7.78;;;18.50;58.90;;;;;;6162490;23;20131;-80
2021/05/15 06:15:33;;;;;;;9.10;8.10;;;18.50;59.60;;;;;;6161820;23;20158;-79
2021/05/15 06:17:59;;;;;;;9.25;7.50;;;18.50;59.00;;;;;;6113056;23;20201;-79
2021/05/15 06:20:24;;;;;;;9.93;7.78;;;18.50;59.00;;;;;;6161902;23;20146;-80
2021/05/15 06:22:51;;;;;;;8.88;7.57;;;18.50;58.90;;;;;;6188302;23;20618;-81
2021/05/15 06:25:17;;;;;;;9.02;7.72;;;18.50;58.90;;;;;;6188130;23;20162;-80
2021/05/15 06:27:44;;;;;;;9.05;7.63;;;18.50;58.90;;;;;;6187665;23;20131;-79
2021/05/15 06:30:10;;;;;;;8.88;7.47;;;18.50;58.70;;;;;;6161542;23;20297;-81
2021/05/15 06:32:37;;;;;;;9.48;7.93;;;18.50;58.80;;;;;;6187387;23;20187;-80
2021/05/15 06:35:03;;;;;;;8.90;7.57;;;18.60;58.90;;;;;;6187681;23;20151;-80
2021/05/15 06:37:28;;;;;;;8.40;7.35;;;18.60;58.80;;;;;;6113192;23;20218;-79
2021/05/15 06:39:54;;;;;;;8.68;7.78;;;18.60;58.80;;;;;;6162118;23;20138;-80
2021/05/15 06:42:20;;;;;;;8.75;7.82;;;18.60;58.80;;;;;;6188281;23;20551;-80
2021/05/15 06:44:48;;;;;;;9.77;8.00;;;18.60;58.80;;;;;;6112321;23;20641;-80
2021/05/15 06:47:14;;;;;;;9.18;7.68;;;18.60;58.90;;;;;;6161410;23;20139;-80
2021/05/15 06:49:40;;;;;;;9.60;8.05;;;18.60;58.80;;;;;;6187964;23;20463;-80
2021/05/15 06:52:06;;;;;;;9.52;7.55;;;18.60;58.80;;;;;;6187688;23;20692;-80
2021/05/15 06:54:32;;;;;;;8.85;7.60;;;18.60;58.80;;;;;;6161993;23;20142;-80
2021/05/15 06:56:58;;;;;;;9.68;7.97;;;18.60;58.90;;;;;;6160122;23;20139;-81
2021/05/15 06:59:25;;;;;;;10.00;8.20;;;18.60;58.90;;;;;;6159506;23;20138;-80
2021/05/15 07:01:51;;;;;;;9.48;7.90;;;18.50;58.80;;;;;;6160686;23;20209;-80
2021/05/15 07:04:17;;;;;;;9.05;7.60;;;18.60;58.80;;;;;;6187382;23;20567;-80
2021/05/15 07:06:44;;;;;;;8.93;7.55;;;18.60;58.90;;;;;;6136087;23;20131;-79
2021/05/15 07:09:11;;;;;;;9.55;7.30;;;18.60;58.80;;;;;;6160536;23;20181;-79
2021/05/15 07:11:37;;;;;;;8.63;7.72;;;18.60;58.80;;;;;;6136280;23;20555;-81
2021/05/15 07:14:04;;;;;;;9.15;7.65;;;18.60;58.70;;;;;;6187385;23;20159;-80
2021/05/15 07:16:31;;;;;;;9.20;7.80;;;18.60;58.80;;;;;;6187291;23;20222;-81
2021/05/15 07:18:57;;;;;;;8.80;7.38;;;18.60;58.70;;;;;;6187820;23;20131;-78
2021/05/15 07:21:24;;;;;;;8.98;7.38;;;18.60;58.70;;;;;;6161079;23;20214;-79
2021/05/15 07:23:50;;;;;;;8.70;7.60;;;18.60;58.70;;;;;;6187442;23;20578;-80
2021/05/15 07:26:17;;;;;;;8.63;7.13;;;18.60;58.70;;;;;;6187316;23;20177;-80
2021/05/15 07:28:44;;;;;;;8.20;7.30;;;18.60;58.70;;;;;;6187403;23;20132;-80
2021/05/15 07:31:10;;;;;;;8.15;6.90;;;18.60;58.60;;;;;;6187107;23;20567;-80
2021/05/15 07:33:37;;;;;;;8.30;7.00;;;18.60;58.40;;;;;;6160657;23;20202;-80
2021/05/15 07:36:03;;;;;;;8.32;7.03;;;18.60;58.30;;;;;;6161249;23;20530;-80
2021/05/15 07:38:30;;;;;;;8.90;7.68;;;18.60;58.30;;;;;;6160433;23;20159;-79
2021/05/15 07:40:57;;;;;;;8.13;7.10;;;18.60;58.40;;;;;;6186995;23;20146;-79
2021/05/15 07:43:25;;;;;;;8.52;7.30;;;18.60;58.30;;;;;;6186962;23;20166;-79
2021/05/15 07:45:53;;;;;;;8.98;7.63;;;18.60;58.40;;;;;;6161303;23;20218;-79
2021/05/15 07:48:28;;;;;;;8.93;7.57;;;18.60;58.60;;;;;;6161167;23;20142;-79
2021/05/15 07:50:56;;;;;;;8.50;7.60;;;18.60;58.40;;;;;;6138015;23;20142;-79
2021/05/15 07:53:23;;;;;;;9.07;8.02;;;18.60;58.60;;;;;;6135989;23;20150;-79
2021/05/15 07:55:49;;;;;;;9.25;7.90;;;18.60;58.60;;;;;;6161266;23;20151;-79
2021/05/15 07:58:16;;;;;;;8.52;7.63;;;18.60;58.60;;;;;;6175185;23;20206;-79
2021/05/15 08:00:42;;;;;;;9.63;7.47;;;18.60;58.40;;;;;;6187345;23;20182;-79
2021/05/15 08:03:08;;;;;;;9.07;7.63;;;18.60;58.50;;;;;;6160902;23;20151;-79
2021/05/15 08:05:33;;;;;;;8.48;7.03;;;18.60;58.20;;;;;;6159854;23;20166;-80
2021/05/15 08:08:01;;;;;;;9.50;7.82;;;18.60;58.20;;;;;;6160202;23;20142;-80
2021/05/15 08:10:27;;;;;;;8.57;7.30;;;18.60;58.30;;;;;;6136493;23;20128;-80
2021/05/15 08:12:53;;;;;;;8.95;7.53;;;18.60;58.30;;;;;;6160007;23;20138;-79
2021/05/15 08:15:18;;;;;;;8.93;7.45;;;18.60;58.30;;;;;;6160401;23;20549;-80
2021/05/15 08:17:44;;;;;;;8.77;7.53;;;18.60;58.30;;;;;;6186085;23;20135;-78
2021/05/15 08:20:10;;;;;;;9.52;7.45;;;18.60;58.40;;;;;;6185915;23;20563;-79
2021/05/15 08:22:36;;;;;;;8.85;7.50;;;18.60;58.30;;;;;;6161130;23;20143;-80
2021/05/15 08:25:02;;;;;;;8.57;7.53;;;18.60;58.30;;;;;;6159809;23;20506;-79
2021/05/15 08:27:28;;;;;;;9.40;7.43;;;18.60;58.20;;;;;;6186054;23;20135;-80
2021/05/15 08:29:53;;;;;;;9.27;7.65;;;18.60;58.20;;;;;;6135245;23;20143;-80
2021/05/15 08:32:19;;;;;;;8.68;7.45;;;18.60;58.30;;;;;;6159403;23;20151;-79
2021/05/15 08:34:45;;;;;;;8.63;7.10;;;18.60;58.20;;;;;;6134890;23;20483;-80
2021/05/15 08:37:11;;;;;;;9.05;7.53;;;18.60;58.10;;;;;;6186058;23;20131;-80
2021/05/15 08:39:37;;;;;;;9.02;7.35;;;18.70;58.20;;;;;;6160026;23;20135;-79
2021/05/15 08:42:03;;;;;;;9.88;7.53;;;18.70;58.10;;;;;;6135508;23;20224;-79
2021/05/15 08:44:29;;;;;;;9.27;7.60;;;18.60;58.20;;;;;;6159654;23;20592;-81
2021/05/15 08:46:55;;;;;;;8.98;7.55;;;18.70;58.20;;;;;;6135105;23;20135;-79
2021/05/15 08:49:22;;;;;;;9.15;7.13;;;18.70;58.20;;;;;;6159897;23;20135;-79
2021/05/15 08:51:50;;;;;;;10.07;7.25;;;18.70;58.20;;;;;;6160086;23;20131;-80
2021/05/15 08:54:17;;;;;;;9.80;7.78;;;18.70;58.10;;;;;;6187182;23;20567;-79
2021/05/15 08:56:43;;;;;;;8.90;7.18;;;18.70;58.30;;;;;;6159955;23;20162;-79
2021/05/15 08:59:10;;;;;;;9.48;7.25;;;18.70;58.30;;;;;;6133896;23;20143;-83
2021/05/15 09:01:37;;;;;;;9.07;7.32;;;18.60;58.50;;;;;;6186146;23;20618;-79
2021/05/15 09:04:05;;;;;;;8.25;7.30;;;18.70;58.30;;;;;;6161303;23;20694;-80
2021/05/15 09:06:40;;;;;;;8.88;7.53;;;18.60;58.30;;;;;;6185971;23;20327;-81
2021/05/15 09:09:07;;;;;;;8.52;7.32;;;18.60;58.50;;;;;;6186142;23;20634;-81
2021/05/15 09:11:34;;;;;;;8.63;7.32;;;18.60;58.60;;;;;;6186114;23;20127;-80
2021/05/15 09:14:00;;;;;;;10.35;7.70;;;18.70;58.60;;;;;;6159562;23;20214;-79
2021/05/15 09:16:27;;;;;;;9.40;7.70;;;18.70;58.60;;;;;;6159736;23;20135;-80
2021/05/15 09:18:53;;;;;;;8.88;7.28;;;18.70;58.50;;;;;;6159700;23;20578;-79
2021/05/15 09:21:22;;;;;;;8.77;7.45;;;18.70;58.50;;;;;;6134748;23;20146;-79
2021/05/15 09:23:49;;;;;;;8.32;7.40;;;18.70;58.50;;;;;;6159616;23;20135;-79
2021/05/15 09:26:19;;;;;;;9.75;7.95;;;18.70;58.60;;;;;;6159930;23;20170;-79
2021/05/15 09:28:54;;;;;;;8.52;7.63;;;18.70;58.50;;;;;;6186656;23;20444;-79
2021/05/15 09:31:26;;;;;;;9.73;7.95;;;18.70;58.70;;;;;;6159844;23;20161;-78
2021/05/15 09:33:53;;;;;;;9.05;7.55;;;18.70;58.60;;;;;;6160984;23;20622;-79
2021/05/15 09:36:21;;;;;;;8.80;7.50;;;18.70;58.50;;;;;;6161657;23;20143;-79
2021/05/15 09:38:58;;;;;;;9.20;7.53;;;18.70;58.60;;;;;;6160858;23;20225;-80
2021/05/15 09:41:43;;;;;;;8.63;7.57;;;18.70;58.50;;;;;;6187088;23;20138;-81
2021/05/15 09:44:11;;;;;;;9.10;7.50;;;18.70;58.40;;;;;;6161262;23;20174;-80
2021/05/15 09:46:39;;;;;;;10.02;7.60;;;18.70;58.40;;;;;;6186054;23;20185;-80
2021/05/15 09:49:05;;;;;;;10.50;7.85;;;18.70;58.30;;;;;;6160945;23;20513;-80
2021/05/15 09:51:32;;;;;;;9.50;7.60;;;18.80;58.30;;;;;;6187501;23;20211;-80
2021/05/15 09:54:21;;;;;;;8.13;6.93;;;18.80;58.10;;;;;;6187401;23;20131;-80
2021/05/15 09:57:12;;;;;;;8.88;7.50;;;18.90;58.20;;;;;;6187860;23;20181;-81
2021/05/15 09:59:46;;;;;;;8.43;7.45;;;18.80;58.20;;;;;;6161483;23;20141;-79
2021/05/15 10:02:34;;;;;;;8.63;7.57;;;18.80;58.20;;;;;;6188292;23;20138;-81
2021/05/15 10:05:11;;;;;;;8.43;7.22;;;18.80;58.30;;;;;;6186301;23;20206;-80
2021/05/15 10:07:38;;;;;;;8.70;7.45;;;18.90;58.20;;;;;;6188030;23;20135;-79
2021/05/15 10:10:06;;;;;;;9.18;7.65;;;18.80;58.10;;;;;;6161644;23;20478;-80
2021/05/15 10:12:34;;;;;;;8.55;7.30;;;18.80;58.20;;;;;;6162640;23;20225;-79
2021/05/15 10:15:04;;;;;;;9.32;7.72;;;18.80;58.20;;;;;;6187514;23;20238;-82
2021/05/15 10:17:33;;;;;;;9.32;7.85;;;18.90;58.20;;;;;;6188072;23;20194;-80
2021/05/15 10:20:06;;;;;;;8.85;7.20;;;18.90;58.20;;;;;;6162290;23;20131;-78
2021/05/15 10:22:40;;;;;;;9.23;7.38;;;18.90;58.30;;;;;;6162325;23;20131;-80
2021/05/15 10:25:17;;;;;;;9.32;7.65;;;18.90;58.20;;;;;;6162001;23;20181;-81
2021/05/15 10:27:44;;;;;;;8.82;7.63;;;18.90;58.20;;;;;;6187699;23;20161;-80
2021/05/15 10:30:24;;;;;;;9.07;7.38;;;18.90;58.20;;;;;;6187190;23;20183;-78
2021/05/15 10:32:57;;;;;;;9.20;7.65;;;18.90;58.20;;;;;;6186574;23;20190;-80
2021/05/15 10:35:45;;;;;;;8.80;7.55;;;18.90;58.20;;;;;;6162223;23;20594;-81
2021/05/15 10:38:13;;;;;;;8.73;7.47;;;18.90;58.20;;;;;;6156823;23;20155;-79
2021/05/15 10:40:51;;;;;;;8.32;6.97;;;19.00;58.20;;;;;;6184703;23;20127;-79
2021/05/15 10:43:37;;;;;;;11.10;7.80;;;19.00;58.20;;;;;;6159357;23;20131;-78
2021/05/15 10:46:24;;;;;;;8.30;7.22;;;19.00;58.20;;;;;;6159914;23;20627;-80
2021/05/15 10:49:09;;;;;;;8.05;7.18;;;18.90;58.20;;;;;;6186556;23;20463;-79
2021/05/15 10:51:39;;;;;;;8.68;7.28;;;18.90;58.40;;;;;;6187223;23;20200;-80
2021/05/15 10:54:06;;;;;;;9.38;7.70;;;18.90;58.40;;;;;;6160494;23;20464;-78
2021/05/15 10:56:33;;;;;;;9.38;7.75;;;18.90;58.50;;;;;;6187639;23;20135;-80
2021/05/15 10:59:21;;;;;;;9.38;7.95;;;18.90;58.40;;;;;;6186703;23;20127;-79
2021/05/15 11:01:52;;;;;;;8.93;7.13;;;18.90;58.30;;;;;;6163026;23;20135;-79
2021/05/15 11:04:50;;;;;;;8.77;7.80;;;18.90;58.20;;;;;;6186722;23;20135;-79
2021/05/15 11:07:17;;;;;;;10.07;7.80;;;18.90;58.50;;;;;;6187101;23;20139;-79
2021/05/15 11:10:05;;;;;;;9.32;7.47;;;18.90;58.50;;;;;;6186693;23;20139;-77
2021/05/15 11:12:47;;;;;;;8.20;7.18;;;18.90;58.50;;;;;;6160309;23;20641;-78
2021/05/15 11:15:17;;;;;;;9.68;7.60;;;18.90;58.40;;;;;;6137723;23;20135;-80
2021/05/15 11:18:02;;;;;;;9.40;7.45;;;19.00;58.30;;;;;;6187074;23;20500;-80
2021/05/15 11:20:28;;;;;;;9.13;7.20;;;19.00;58.30;;;;;;6160494;23;20177;-79
2021/05/15 11:22:53;;;;;;;10.05;7.35;;;18.90;58.40;;;;;;6136162;23;20155;-79
2021/05/15 11:25:20;;;;;;;8.00;7.05;;;18.90;58.30;;;;;;6160172;23;20681;-80
2021/05/15 11:27:46;;;;;;;9.00;7.47;;;19.00;58.30;;;;;;6186467;23;20186;-78
2021/05/15 11:30:16;;;;;;;8.70;7.40;;;19.00;58.40;;;;;;6187041;23;20135;-79
2021/05/15 11:32:54;;;;;;;9.18;7.50;;;19.00;58.50;;;;;;6186818;23;20198;-79
2021/05/15 11:35:21;;;;;;;9.50;7.45;;;19.00;58.50;;;;;;6186883;23;20147;-79
2021/05/15 11:37:46;;;;;;;9.23;7.22;;;19.00;58.40;;;;;;6187006;23;20614;-80
2021/05/15 11:40:14;;;;;;;9.57;7.55;;;19.00;58.30;;;;;;6135885;23;20223;-79
2021/05/15 11:42:40;;;;;;;9.45;7.07;;;19.00;58.50;;;;;;6160278;23;20149;-79
2021/05/15 11:45:06;;;;;;;10.57;7.47;;;19.00;58.50;;;;;;6160286;23;20253;-78
2021/05/15 11:47:32;;;;;;;9.00;7.78;;;19.00;58.30;;;;;;6187058;23;20174;-79
2021/05/15 11:49:59;;;;;;;8.95;7.35;;;19.00;58.40;;;;;;6186616;23;20623;-78
2021/05/15 11:52:30;;;;;;;8.07;7.28;;;19.00;58.30;;;;;;6186186;23;20146;-80
2021/05/15 11:54:55;;;;;;;8.15;6.95;;;19.00;58.20;;;;;;6159889;23;20146;-80
2021/05/15 11:57:28;;;;;;;9.15;7.30;;;19.00;58.30;;;;;;6186471;23;20135;-79
2021/05/15 12:00:06;;;;;;;9.23;7.05;;;19.00;58.30;;;;;;6186348;23;20154;-80
2021/05/15 12:02:32;;;;;;;8.35;6.97;;;19.00;58.30;;;;;;6162886;23;20157;-80
2021/05/15 12:04:57;;;;;;;8.68;7.07;;;19.00;58.20;;;;;;6186397;23;20171;-79
2021/05/15 12:07:23;;;;;;;9.20;7.00;;;19.00;58.30;;;;;;6186435;23;20131;-79
2021/05/15 12:09:49;;;;;;;8.73;6.80;;;19.00;58.40;;;;;;6160011;23;20135;-79
2021/05/15 12:12:17;;;;;;;9.95;7.70;;;19.00;58.20;;;;;;6160044;23;20165;-80
2021/05/15 12:14:43;;;;;;;8.93;7.75;;;19.00;58.20;;;;;;6135258;23;20157;-80
2021/05/15 12:17:13;;;;;;;10.55;8.07;;;19.00;58.30;;;;;;6186731;23;20139;-78
2021/05/15 12:19:39;;;;;;;12.52;7.72;;;19.00;58.20;;;;;;6186415;23;20135;-80
2021/05/15 12:22:06;;;;;;;10.10;7.32;;;19.00;58.30;;;;;;6186061;23;20139;-80
2021/05/15 12:24:32;;;;;;;10.75;7.57;;;19.00;58.10;;;;;;6159815;23;20161;-81
2021/05/15 12:27:11;;;;;;;11.10;7.60;;;19.00;58.30;;;;;;6186061;23;20131;-80
2021/05/15 12:29:38;;;;;;;9.30;7.15;;;19.00;58.20;;;;;;6186151;23;20181;-79
2021/05/15 12:32:04;;;;;;;9.02;7.60;;;19.00;58.20;;;;;;6186075;23;20131;-80
2021/05/15 12:34:30;;;;;;;9.85;6.78;;;19.00;58.20;;;;;;6159768;23;20444;-78
2021/05/15 12:36:56;;;;;;;9.07;7.05;;;19.00;58.20;;;;;;6185897;23;20551;-80
2021/05/15 12:39:21;;;;;;;8.68;6.85;;;19.00;58.20;;;;;;6186383;23;20142;-80
2021/05/15 12:41:47;;;;;;;7.60;6.80;;;19.10;58.10;;;;;;6159490;23;20519;-79
2021/05/15 12:44:17;;;;;;;8.13;6.80;;;19.10;58.20;;;;;;6186050;23;20578;-78
2021/05/15 12:46:47;;;;;;;9.30;7.10;;;19.10;58.20;;;;;;6159805;23;20609;-80
2021/05/15 12:49:17;;;;;;;8.50;7.40;;;19.10;58.00;;;;;;6159458;23;20143;-79
2021/05/15 12:51:55;;;;;;;9.30;7.55;;;19.10;58.10;;;;;;6185935;23;20131;-79
2021/05/15 12:54:28;;;;;;;8.98;7.20;;;19.10;58.10;;;;;;6185748;23;20211;-78
2021/05/15 12:57:00;;;;;;;8.10;6.95;;;19.10;58.10;;;;;;6185965;23;20142;-79
2021/05/15 12:59:29;;;;;;;8.10;7.05;;;19.10;58.00;;;;;;6186754;23;20135;-78